createdAt,value
2023-03-30T00:02:22.545Z,2.00
2023-03-30T00:04:51.847Z,1.60
2023-03-30T00:07:20.660Z,1.70
2023-03-30T00:09:48.956Z,1.63
2023-03-30T00:12:20.874Z,1.73
2023-03-30T00:14:49.431Z,1.37
2023-03-30T00:17:18.653Z,1.70
2023-03-30T00:19:46.975Z,1.50
2023-03-30T00:22:15.387Z,1.70
2023-03-30T00:24:43.808Z,1.63
2023-03-30T00:27:12.156Z,2.23
2023-03-30T00:29:42.523Z,1.73
2023-03-30T00:32:10.864Z,1.60
2023-03-30T00:34:39.313Z,1.93
2023-03-30T00:37:07.547Z,2.07
2023-03-30T00:39:35.857Z,1.83
2023-03-30T00:42:04.144Z,1.90
2023-03-30T00:45:09.163Z,1.77
2023-03-30T00:47:42.032Z,2.00
2023-03-30T00:50:12.348Z,1.93
2023-03-30T00:52:43.219Z,1.70
2023-03-30T00:55:12.844Z,1.73
2023-03-30T00:57:44.241Z,2.13
2023-03-30T01:00:14.756Z,1.30
2023-03-30T01:02:48.710Z,2.13
2023-03-30T01:05:17.833Z,1.90
2023-03-30T01:07:49.902Z,1.80
2023-03-30T01:10:19.435Z,2.20
2023-03-30T01:12:48.158Z,2.00
2023-03-30T01:15:18.189Z,1.93
2023-03-30T01:18:04.618Z,2.13
2023-03-30T01:21:17.903Z,1.40
2023-03-30T01:24:27.741Z,1.67
2023-03-30T01:26:59.784Z,1.60
2023-03-30T01:29:56.482Z,1.77
2023-03-30T01:33:00.297Z,1.30
2023-03-30T01:35:47.582Z,1.70
2023-03-30T01:39:06.875Z,1.63
2023-03-30T01:41:43.136Z,1.60
2023-03-30T01:44:20.682Z,1.77
2023-03-30T01:46:55.044Z,1.50
2023-03-30T01:49:30.027Z,2.03
2023-03-30T01:52:06.720Z,1.40
2023-03-30T01:54:39.113Z,1.43
2023-03-30T01:57:15.416Z,1.50
2023-03-30T01:59:48.797Z,1.40
2023-03-30T02:02:22.109Z,1.30
2023-03-30T02:04:53.814Z,1.43
2023-03-30T02:07:26.220Z,1.60
2023-03-30T02:09:56.829Z,1.60
2023-03-30T02:12:30.091Z,1.70
2023-03-30T02:15:01.285Z,1.63
2023-03-30T02:17:31.712Z,1.23
2023-03-30T02:20:01.963Z,1.63
2023-03-30T02:22:30.702Z,1.73
2023-03-30T02:25:00.929Z,1.80
2023-03-30T02:27:32.050Z,1.30
2023-03-30T02:30:00.476Z,1.50
2023-03-30T02:32:34.981Z,1.57
2023-03-30T02:35:28.127Z,1.20
2023-03-30T02:38:17.164Z,1.67
2023-03-30T02:40:57.737Z,1.70
2023-03-30T02:43:38.976Z,1.50
2023-03-30T02:46:24.514Z,1.33
2023-03-30T02:49:03.133Z,1.50
2023-03-30T02:51:42.449Z,1.57
2023-03-30T02:54:26.850Z,1.50
2023-03-30T02:57:20.036Z,1.70
2023-03-30T02:59:57.392Z,2.00
2023-03-30T03:02:32.313Z,1.30
2023-03-30T03:05:15.208Z,1.80
2023-03-30T03:08:01.629Z,1.57
2023-03-30T03:10:30.094Z,1.57
2023-03-30T03:12:58.523Z,1.47
2023-03-30T03:15:28.963Z,1.57
2023-03-30T03:18:07.642Z,1.20
2023-03-30T03:20:37.614Z,1.10
2023-03-30T03:23:07.542Z,1.20
2023-03-30T03:25:57.019Z,1.20
2023-03-30T03:28:25.536Z,1.70
2023-03-30T03:31:00.276Z,1.90
2023-03-30T03:33:31.854Z,1.40
2023-03-30T03:36:23.645Z,1.00
2023-03-30T03:38:54.423Z,1.73
2023-03-30T03:41:22.728Z,1.50
2023-03-30T03:43:51.067Z,1.23
2023-03-30T03:46:21.989Z,1.40
2023-03-30T03:48:50.319Z,1.10
2023-03-30T03:51:18.749Z,1.10
2023-03-30T03:53:49.732Z,1.43
2023-03-30T03:56:18.323Z,1.13
2023-03-30T03:58:46.688Z,1.30
2023-03-30T04:01:16.462Z,1.33
2023-03-30T04:03:46.512Z,1.67
2023-03-30T04:06:14.828Z,7.40
2023-03-30T04:08:43.158Z,13.90
2023-03-30T04:11:34.506Z,16.40
2023-03-30T04:14:21.402Z,22.37
2023-03-30T04:17:00.552Z,19.23
2023-03-30T04:20:04.903Z,15.50
2023-03-30T04:23:02.821Z,10.60
2023-03-30T04:26:01.752Z,7.90
2023-03-30T04:28:47.989Z,6.60
2023-03-30T04:31:46.916Z,4.50
2023-03-30T04:34:36.795Z,3.73
2023-03-30T04:37:23.957Z,3.33
2023-03-30T04:40:13.170Z,2.87
2023-03-30T04:43:03.587Z,2.20
2023-03-30T04:45:54.777Z,1.63
2023-03-30T04:48:24.773Z,2.33
2023-03-30T04:51:11.835Z,1.73
2023-03-30T04:54:00.126Z,1.77
2023-03-30T04:56:46.792Z,1.90
2023-03-30T04:59:44.766Z,1.70
2023-03-30T05:02:28.371Z,2.10
2023-03-30T05:05:22.753Z,1.17
2023-03-30T05:08:11.628Z,1.33
2023-03-30T05:11:11.763Z,2.10
2023-03-30T05:13:58.539Z,1.63
2023-03-30T05:16:36.897Z,1.57
2023-03-30T05:19:25.611Z,2.10
2023-03-30T05:22:12.699Z,1.97
2023-03-30T05:25:13.224Z,2.33
2023-03-30T05:27:56.148Z,4.30
2023-03-30T05:30:44.485Z,13.43
2023-03-30T05:33:32.783Z,4.93
2023-03-30T05:36:30.313Z,2.47
2023-03-30T05:39:09.191Z,1.83
2023-03-30T05:41:53.002Z,1.93
2023-03-30T05:44:41.445Z,1.40
2023-03-30T05:47:28.990Z,1.60
2023-03-30T05:50:16.042Z,1.50
2023-03-30T05:52:56.627Z,1.80
2023-03-30T05:55:40.499Z,1.97
2023-03-30T05:58:27.595Z,1.77
2023-03-30T06:01:12.357Z,1.70
2023-03-30T06:03:44.123Z,1.37
2023-03-30T06:06:13.743Z,1.50
2023-03-30T06:08:47.188Z,2.07
2023-03-30T06:11:19.327Z,3.87
2023-03-30T06:13:59.106Z,18.73
2023-03-30T06:16:31.917Z,14.23
2023-03-30T06:19:01.427Z,8.70
2023-03-30T06:21:30.305Z,4.93
2023-03-30T06:24:18.724Z,2.73
2023-03-30T06:26:48.567Z,2.43
2023-03-30T06:29:17.937Z,2.00
2023-03-30T06:31:48.051Z,2.40
2023-03-30T06:34:34.896Z,1.77
2023-03-30T06:37:03.878Z,2.00
2023-03-30T06:39:32.205Z,2.00
2023-03-30T06:42:00.979Z,1.83
2023-03-30T06:44:49.924Z,1.50
2023-03-30T06:47:22.466Z,1.70
2023-03-30T06:49:51.364Z,1.97
2023-03-30T06:52:29.059Z,1.77
2023-03-30T06:54:57.674Z,1.70
2023-03-30T06:57:26.786Z,1.67
2023-03-30T06:59:55.250Z,1.63
2023-03-30T07:02:25.492Z,1.70
2023-03-30T07:05:08.901Z,1.63
2023-03-30T07:07:47.692Z,1.70
2023-03-30T07:10:16.325Z,2.10
2023-03-30T07:12:47.190Z,1.43
2023-03-30T07:15:17.007Z,1.60
2023-03-30T07:17:47.155Z,1.60
2023-03-30T07:20:16.181Z,1.40
2023-03-30T07:22:59.654Z,1.83
2023-03-30T07:25:28.218Z,1.63
2023-03-30T07:27:56.637Z,1.57
2023-03-30T07:30:26.320Z,1.60
2023-03-30T07:33:03.706Z,1.50
2023-03-30T07:35:32.648Z,1.60
2023-03-30T07:38:04.305Z,1.80
2023-03-30T07:40:39.264Z,2.10
2023-03-30T07:43:08.704Z,1.80
2023-03-30T07:45:37.140Z,1.67
2023-03-30T07:48:09.786Z,1.83
2023-03-30T07:50:38.129Z,2.63
2023-03-30T07:53:06.594Z,2.17
2023-03-30T07:55:35.011Z,1.27
2023-03-30T07:58:11.020Z,1.20
2023-03-30T08:00:39.815Z,1.63
2023-03-30T08:03:37.163Z,1.90
2023-03-30T08:06:06.849Z,1.63
2023-03-30T08:08:41.041Z,2.10
2023-03-30T08:11:11.238Z,1.87
2023-03-30T08:13:39.760Z,2.07
2023-03-30T08:16:10.144Z,1.70
2023-03-30T08:18:41.378Z,2.40
2023-03-30T08:21:10.926Z,1.60
2023-03-30T08:23:39.435Z,1.77
2023-03-30T08:26:07.888Z,1.80
2023-03-30T08:28:36.638Z,2.03
2023-03-30T08:31:10.657Z,1.90
2023-03-30T08:33:41.148Z,1.80
2023-03-30T08:36:09.748Z,2.10
2023-03-30T08:38:38.253Z,1.47
2023-03-30T08:41:32.723Z,2.10
2023-03-30T08:44:02.787Z,1.77
2023-03-30T08:46:32.087Z,1.63
2023-03-30T08:49:09.788Z,1.77
2023-03-30T08:51:39.463Z,2.67
2023-03-30T08:54:13.049Z,2.67
2023-03-30T08:56:43.621Z,2.30
2023-03-30T08:59:22.971Z,9.30
2023-03-30T09:01:55.375Z,13.17
2023-03-30T09:04:33.949Z,3.10
2023-03-30T09:07:07.716Z,2.40
2023-03-30T09:09:42.874Z,2.10
2023-03-30T09:12:22.370Z,2.33
2023-03-30T09:14:55.138Z,2.10
2023-03-30T09:17:29.609Z,2.47
2023-03-30T09:20:03.368Z,2.10
2023-03-30T09:22:38.721Z,1.97
2023-03-30T09:25:15.664Z,2.20
2023-03-30T09:27:55.651Z,2.40
2023-03-30T09:30:29.294Z,1.90
2023-03-30T09:33:05.271Z,2.23
2023-03-30T09:35:41.804Z,1.73
2023-03-30T09:38:13.084Z,1.93
2023-03-30T09:41:06.618Z,2.13
2023-03-30T09:43:37.544Z,2.23
2023-03-30T09:46:09.471Z,1.67
2023-03-30T09:48:42.959Z,2.90
2023-03-30T09:51:21.681Z,2.60
2023-03-30T09:53:52.556Z,2.10
2023-03-30T09:56:28.567Z,2.47
2023-03-30T09:58:57.523Z,2.37
2023-03-30T10:01:38.128Z,2.93
2023-03-30T10:04:09.830Z,2.20
2023-03-30T10:06:47.459Z,1.80
2023-03-30T10:09:19.333Z,1.90
2023-03-30T10:11:50.947Z,2.57
2023-03-30T10:14:30.490Z,2.00
2023-03-30T10:16:59.644Z,3.20
2023-03-30T10:19:27.978Z,2.10
2023-03-30T10:21:59.987Z,2.00
2023-03-30T10:24:31.660Z,2.50
2023-03-30T10:27:05.684Z,2.40
2023-03-30T10:29:34.035Z,1.53
2023-03-30T10:32:11.330Z,2.20
2023-03-30T10:34:42.208Z,1.77
2023-03-30T10:37:15.655Z,3.00
2023-03-30T10:39:47.587Z,2.03
2023-03-30T10:42:18.728Z,1.90
2023-03-30T10:44:51.515Z,2.53
2023-03-30T10:47:37.423Z,2.70
2023-03-30T10:50:14.026Z,3.07
2023-03-30T10:52:59.159Z,2.10
2023-03-30T10:55:35.938Z,2.30
2023-03-30T10:58:15.296Z,1.77
2023-03-30T11:00:54.137Z,2.17
2023-03-30T11:03:25.978Z,2.50
2023-03-30T11:05:58.255Z,2.37
2023-03-30T11:08:31.028Z,2.30
2023-03-30T11:11:01.195Z,2.33
2023-03-30T11:13:34.442Z,2.47
2023-03-30T11:16:08.729Z,2.07
2023-03-30T11:18:42.725Z,2.60
2023-03-30T11:21:17.825Z,2.57
2023-03-30T11:23:54.028Z,21.90
2023-03-30T11:26:30.947Z,13.53
2023-03-30T11:29:07.156Z,3.50
2023-03-30T11:31:55.059Z,2.40
2023-03-30T11:34:31.717Z,2.20
2023-03-30T11:37:08.320Z,1.80
2023-03-30T11:39:42.670Z,2.10
2023-03-30T11:42:17.337Z,2.37
2023-03-30T11:44:45.862Z,2.50
2023-03-30T11:47:32.434Z,1.97
2023-03-30T11:50:12.927Z,4.13
2023-03-30T11:52:50.583Z,2.00
2023-03-30T11:55:31.918Z,2.23
2023-03-30T11:58:14.754Z,1.53
2023-03-30T12:00:54.729Z,1.80
2023-03-30T12:03:36.677Z,2.13
2023-03-30T12:06:32.122Z,2.50
2023-03-30T12:09:13.245Z,1.63
2023-03-30T12:11:48.268Z,1.83
2023-03-30T12:14:47.298Z,2.23
2023-03-30T12:17:33.533Z,2.20
2023-03-30T12:20:08.043Z,1.83
2023-03-30T12:22:39.711Z,1.60
2023-03-30T12:25:18.774Z,1.77
2023-03-30T12:27:59.789Z,2.00
2023-03-30T12:30:32.002Z,2.00
2023-03-30T12:33:04.200Z,1.83
2023-03-30T12:35:58.294Z,1.43
2023-03-30T12:38:28.342Z,1.73
2023-03-30T12:41:06.219Z,2.63
2023-03-30T12:43:49.195Z,1.47
2023-03-30T12:46:26.232Z,1.50
2023-03-30T12:49:04.343Z,1.80
2023-03-30T12:51:51.191Z,1.30
2023-03-30T12:54:45.434Z,2.10
2023-03-30T12:57:26.040Z,1.40
2023-03-30T13:00:08.478Z,1.80
2023-03-30T13:02:51.992Z,2.10
2023-03-30T13:05:24.511Z,1.87
2023-03-30T13:07:55.224Z,1.70
2023-03-30T13:10:42.239Z,2.27
2023-03-30T13:13:22.982Z,2.63
2023-03-30T13:15:54.752Z,2.33
2023-03-30T13:18:42.265Z,2.17
2023-03-30T13:21:25.510Z,1.50
2023-03-30T13:24:03.588Z,1.97
2023-03-30T13:26:44.632Z,2.20
2023-03-30T13:29:15.864Z,1.97
2023-03-30T13:32:04.810Z,2.10
2023-03-30T13:34:51.648Z,1.90
2023-03-30T13:37:35.964Z,1.87
2023-03-30T13:40:12.318Z,1.77
2023-03-30T13:42:50.713Z,1.67
2023-03-30T13:45:40.403Z,2.17
2023-03-30T13:48:22.477Z,1.90
2023-03-30T13:50:55.966Z,2.07
2023-03-30T13:53:27.345Z,2.03
2023-03-30T13:55:56.461Z,1.60
2023-03-30T13:58:28.818Z,2.20
2023-03-30T14:01:02.847Z,2.33
2023-03-30T14:03:40.002Z,2.00
2023-03-30T14:06:16.143Z,25.87
2023-03-30T14:08:46.398Z,9.17
2023-03-30T14:11:20.932Z,3.47
2023-03-30T14:13:52.888Z,1.80
2023-03-30T14:16:24.735Z,2.40
2023-03-30T14:19:06.365Z,1.80
2023-03-30T14:21:38.750Z,2.00
2023-03-30T14:24:11.321Z,2.57
2023-03-30T14:26:42.775Z,2.37
2023-03-30T14:29:24.549Z,2.40
2023-03-30T14:32:08.269Z,1.70
2023-03-30T14:34:39.174Z,2.50
2023-03-30T14:37:09.711Z,2.43
2023-03-30T14:39:43.250Z,2.30
2023-03-30T14:42:17.692Z,2.40
2023-03-30T14:44:48.461Z,3.00
2023-03-30T14:47:20.297Z,2.07
2023-03-30T14:49:51.772Z,2.20
2023-03-30T14:52:30.068Z,2.67
2023-03-30T14:55:07.402Z,2.17
2023-03-30T14:57:40.546Z,2.47
2023-03-30T15:00:21.210Z,2.73
2023-03-30T15:02:53.618Z,2.13
2023-03-30T15:05:25.382Z,2.07
2023-03-30T15:07:54.506Z,1.70
2023-03-30T15:10:25.357Z,2.10
2023-03-30T15:12:56.644Z,2.83
2023-03-30T15:15:29.427Z,2.60
2023-03-30T15:17:58.323Z,2.63
2023-03-30T15:20:30.903Z,1.73
2023-03-30T15:23:00.806Z,1.60
2023-03-30T15:25:32.621Z,1.23
2023-03-30T15:28:06.709Z,1.80
2023-03-30T15:30:38.992Z,3.93
2023-03-30T15:33:08.565Z,12.50
2023-03-30T15:35:39.068Z,3.93
2023-03-30T15:38:16.870Z,2.73
2023-03-30T15:40:47.026Z,2.37
2023-03-30T15:43:18.357Z,2.17
2023-03-30T15:45:49.904Z,2.30
2023-03-30T15:48:22.174Z,2.70
2023-03-30T15:50:55.494Z,3.20
2023-03-30T15:53:37.656Z,2.20
2023-03-30T15:56:08.685Z,2.43
2023-03-30T15:58:37.256Z,3.00
2023-03-30T16:01:06.861Z,2.37
2023-03-30T16:03:40.549Z,2.53
2023-03-30T16:06:14.320Z,2.97
2023-03-30T16:08:44.446Z,2.87
2023-03-30T16:11:16.272Z,2.10
2023-03-30T16:13:47.063Z,2.27
2023-03-30T16:16:18.454Z,2.63
2023-03-30T16:18:46.956Z,2.20
2023-03-30T16:21:18.491Z,2.20
2023-03-30T16:23:46.838Z,2.60
2023-03-30T16:26:15.199Z,2.00
2023-03-30T16:28:43.555Z,1.70
2023-03-30T16:31:16.734Z,2.40
2023-03-30T16:33:45.105Z,2.00
2023-03-30T16:36:17.713Z,2.27
2023-03-30T16:38:46.792Z,1.83
2023-03-30T16:41:19.551Z,2.00
2023-03-30T16:43:48.386Z,2.20
2023-03-30T16:46:18.095Z,2.03
2023-03-30T16:48:51.448Z,2.43
2023-03-30T16:51:21.375Z,2.27
2023-03-30T16:53:49.904Z,2.00
2023-03-30T16:56:20.001Z,2.10
2023-03-30T16:58:48.680Z,1.90
2023-03-30T17:01:18.652Z,1.83
2023-03-30T17:03:47.749Z,2.33
2023-03-30T17:06:17.143Z,2.57
2023-03-30T17:08:46.998Z,2.00
2023-03-30T17:11:15.781Z,1.60
2023-03-30T17:13:46.514Z,1.90
2023-03-30T17:16:16.769Z,1.87
2023-03-30T17:18:45.624Z,5.13
2023-03-30T17:21:16.652Z,31.43
2023-03-30T17:23:48.081Z,13.90
2023-03-30T17:26:16.625Z,6.30
2023-03-30T17:28:45.543Z,4.57
2023-03-30T17:31:17.471Z,3.27
2023-03-30T17:33:46.130Z,2.40
2023-03-30T17:36:18.089Z,2.17
2023-03-30T17:38:48.571Z,1.83
2023-03-30T17:41:19.476Z,2.17
2023-03-30T17:43:49.143Z,2.00
2023-03-30T17:46:19.992Z,1.60
2023-03-30T17:48:52.300Z,1.33
2023-03-30T17:51:20.762Z,2.13
2023-03-30T17:53:50.666Z,1.87
2023-03-30T17:56:19.034Z,1.63
2023-03-30T17:58:49.167Z,1.83
2023-03-30T18:01:17.691Z,1.57
2023-03-30T18:03:46.209Z,1.27
2023-03-30T18:06:14.614Z,1.63
2023-03-30T18:08:44.060Z,1.70
2023-03-30T18:11:14.160Z,1.60
2023-03-30T18:13:42.553Z,2.00
2023-03-30T18:16:12.697Z,1.53
2023-03-30T18:18:41.124Z,1.43
2023-03-30T18:21:11.484Z,1.87
2023-03-30T18:23:39.869Z,1.77
2023-03-30T18:26:12.226Z,1.63
2023-03-30T18:28:44.087Z,1.67
2023-03-30T18:31:13.055Z,1.57
2023-03-30T18:33:41.845Z,2.20
2023-03-30T18:36:13.289Z,1.70
2023-03-30T18:38:42.397Z,1.93
2023-03-30T18:41:12.861Z,2.17
2023-03-30T18:43:42.937Z,1.70
2023-03-30T18:46:13.624Z,1.80
2023-03-30T18:48:41.992Z,1.70
2023-03-30T18:51:12.250Z,1.90
2023-03-30T18:53:40.717Z,2.27
2023-03-30T18:56:13.771Z,2.07
2023-03-30T18:58:43.917Z,2.60
2023-03-30T19:01:15.963Z,2.90
2023-03-30T19:03:44.870Z,2.20
2023-03-30T19:06:16.589Z,2.43
2023-03-30T19:08:45.047Z,1.60
2023-03-30T19:11:19.440Z,2.30
2023-03-30T19:13:50.172Z,2.00
2023-03-30T19:16:20.978Z,1.90
2023-03-30T19:18:50.264Z,1.97
2023-03-30T19:21:19.546Z,5.90
2023-03-30T19:23:51.892Z,6.10
2023-03-30T19:26:20.304Z,4.10
2023-03-30T19:28:50.077Z,3.50
2023-03-30T19:31:18.670Z,2.43
2023-03-30T19:33:47.039Z,1.90
2023-03-30T19:36:15.459Z,2.00
2023-03-30T19:38:44.191Z,2.07
2023-03-30T19:41:12.976Z,1.90
2023-03-30T19:43:41.424Z,1.80
2023-03-30T19:46:11.178Z,1.70
2023-03-30T19:48:39.590Z,1.67
2023-03-30T19:51:08.221Z,1.90
2023-03-30T19:53:42.191Z,1.37
2023-03-30T19:56:11.534Z,1.93
2023-03-30T19:58:40.259Z,1.70
2023-03-30T20:01:10.409Z,1.70
2023-03-30T20:03:39.210Z,1.70
2023-03-30T20:06:11.055Z,1.63
2023-03-30T20:08:40.186Z,1.63
2023-03-30T20:11:09.650Z,1.90
2023-03-30T20:13:38.229Z,2.20
2023-03-30T20:16:07.351Z,2.20
2023-03-30T20:18:40.274Z,1.80
2023-03-30T20:21:08.733Z,1.70
2023-03-30T20:23:37.110Z,1.60
2023-03-30T20:26:05.569Z,1.60
2023-03-30T20:28:34.111Z,1.80
2023-03-30T20:31:03.074Z,1.50
2023-03-30T20:33:34.381Z,1.10
2023-03-30T20:36:04.304Z,1.60
2023-03-30T20:38:32.958Z,1.80
2023-03-30T20:41:04.141Z,1.73
2023-03-30T20:43:40.595Z,1.77
2023-03-30T20:46:15.170Z,1.47
2023-03-30T20:48:45.120Z,1.37
2023-03-30T20:51:16.449Z,1.60
2023-03-30T20:53:44.814Z,1.10
2023-03-30T20:56:13.176Z,1.20
2023-03-30T20:58:41.624Z,1.47
2023-03-30T21:01:16.356Z,1.47
2023-03-30T21:03:45.860Z,1.13
2023-03-30T21:06:19.679Z,1.87
2023-03-30T21:08:48.148Z,1.40
2023-03-30T21:11:16.460Z,1.67
2023-03-30T21:13:44.912Z,1.43
2023-03-30T21:16:13.917Z,1.40
2023-03-30T21:18:42.286Z,1.20
2023-03-30T21:21:11.163Z,1.60
2023-03-30T21:23:41.523Z,2.03
2023-03-30T21:26:10.285Z,1.30
2023-03-30T21:28:42.513Z,1.53
2023-03-30T21:31:14.243Z,1.80
2023-03-30T21:33:42.853Z,1.60
2023-03-30T21:36:11.998Z,1.80
2023-03-30T21:38:41.966Z,1.43
2023-03-30T21:41:12.770Z,1.33
2023-03-30T21:43:44.129Z,1.50
2023-03-30T21:46:15.303Z,1.20
2023-03-30T21:48:45.537Z,1.10
2023-03-30T21:51:15.797Z,1.47
2023-03-30T21:53:48.305Z,1.10
2023-03-30T21:56:16.928Z,1.27
2023-03-30T21:58:45.555Z,1.20
2023-03-30T22:01:13.862Z,1.00
2023-03-30T22:03:43.168Z,1.30
2023-03-30T22:06:13.470Z,1.60
2023-03-30T22:08:42.400Z,1.47
2023-03-30T22:11:14.423Z,1.67
2023-03-30T22:13:42.841Z,1.40
2023-03-30T22:16:14.033Z,1.83
2023-03-30T22:18:43.071Z,1.60
2023-03-30T22:21:14.579Z,1.20
2023-03-30T22:23:42.971Z,1.33
2023-03-30T22:26:13.347Z,1.60
2023-03-30T22:28:42.105Z,1.60
2023-03-30T22:31:11.596Z,1.70
2023-03-30T22:33:40.466Z,1.43
2023-03-30T22:36:17.346Z,1.60
2023-03-30T22:38:46.222Z,1.70
2023-03-30T22:41:16.231Z,1.63
2023-03-30T22:43:44.643Z,1.40
2023-03-30T22:46:13.040Z,1.47
2023-03-30T22:48:42.093Z,1.27
2023-03-30T22:51:14.236Z,1.50
2023-03-30T22:53:42.780Z,1.20
2023-03-30T22:56:11.812Z,1.47
2023-03-30T22:58:41.648Z,1.90
2023-03-30T23:01:11.125Z,1.83
2023-03-30T23:03:40.004Z,1.47
2023-03-30T23:06:09.368Z,1.80
2023-03-30T23:08:39.312Z,1.73
2023-03-30T23:11:08.375Z,1.90
2023-03-30T23:13:38.182Z,1.90
2023-03-30T23:16:08.908Z,1.90
2023-03-30T23:18:37.844Z,2.00
2023-03-30T23:21:07.542Z,1.37
2023-03-30T23:23:37.271Z,1.20
2023-03-30T23:26:08.412Z,1.33
2023-03-30T23:28:39.102Z,1.30
2023-03-30T23:31:10.694Z,1.60
2023-03-30T23:33:39.278Z,2.93
2023-03-30T23:36:13.657Z,1.50
2023-03-30T23:38:42.375Z,1.47
2023-03-30T23:41:13.609Z,1.63
2023-03-30T23:43:42.150Z,1.20
2023-03-30T23:46:12.340Z,1.80
2023-03-30T23:48:41.094Z,1.50
2023-03-30T23:51:10.624Z,1.50
2023-03-30T23:53:40.387Z,1.63
2023-03-30T23:56:12.987Z,2.07
2023-03-30T23:58:41.781Z,1.63
